Wood Lake, Minnesota
Current Conditions -  °F | °C
As of 5:32 PM on Monday 20 Oct 2014 (Local Time) from KGDB Reporting Station
Clear Clear  
Wind Chill: 65°   Ceiling: Unl
Heat Index: 65°   Visibility: 7mi
Dew Point: 37°   Wind: 7mph
Humidity: 36%   Direction: 320°NW
Pressure: 30.04"   Gusts: NA
Location:  44.65°N, 95.54°W
Report Text: KGDB 202232Z AUTO 32006KT 7SM CLR 18/03 A3004 RMK AO2 T01840030
Loading
Personal Weather Stations






























Interactive Weather Map
Tropical Storm Tracking
New forecast layout! Learn more

10-Day Weather Forecast

Advertisements
Track Severe Weather on mobile